createdAt,value
2018-07-15T00:02:12.075Z,99.90
2018-07-15T00:05:15.704Z,99.90
2018-07-15T00:08:19.310Z,99.90
2018-07-15T00:11:22.939Z,99.90
2018-07-15T00:14:26.595Z,99.90
2018-07-15T00:20:33.556Z,99.90
2018-07-15T00:23:37.178Z,99.90
2018-07-15T00:26:40.786Z,99.90
2018-07-15T00:29:44.420Z,99.90
2018-07-15T00:32:48.035Z,99.90
2018-07-15T00:35:51.667Z,99.90
2018-07-15T00:38:55.276Z,99.90
2018-07-15T00:41:58.911Z,99.90
2018-07-15T00:45:02.544Z,99.90
2018-07-15T00:48:06.191Z,99.90
2018-07-15T00:51:09.819Z,99.90
2018-07-15T00:57:16.809Z,99.90
2018-07-15T01:00:25.824Z,99.90
2018-07-15T01:03:29.906Z,99.90
2018-07-15T01:06:33.564Z,99.90
2018-07-15T01:09:37.175Z,99.90
2018-07-15T01:12:40.819Z,99.90
2018-07-15T01:15:44.436Z,99.90
2018-07-15T01:18:48.105Z,99.90
2018-07-15T01:21:51.783Z,99.90
2018-07-15T01:24:55.450Z,99.90
2018-07-15T01:27:59.199Z,99.90
2018-07-15T01:34:06.354Z,99.90
2018-07-15T01:37:10.001Z,99.90
2018-07-15T01:40:13.640Z,99.90
2018-07-15T01:43:17.238Z,99.90
2018-07-15T01:46:20.891Z,99.90
2018-07-15T01:49:24.473Z,99.90
2018-07-15T01:52:28.110Z,99.90
2018-07-15T01:55:31.713Z,99.90
2018-07-15T01:58:35.576Z,99.90
2018-07-15T02:01:39.188Z,99.90
2018-07-15T02:04:49.379Z,99.90
2018-07-15T02:07:52.990Z,99.90
2018-07-15T02:10:56.609Z,99.90
2018-07-15T02:14:00.628Z,99.90
2018-07-15T02:17:04.246Z,99.90
2018-07-15T02:20:07.860Z,99.90
2018-07-15T02:23:11.517Z,99.90
2018-07-15T02:26:15.139Z,99.90
2018-07-15T02:29:18.817Z,99.90
2018-07-15T02:32:22.438Z,99.90
2018-07-15T02:35:26.071Z,99.90
2018-07-15T02:38:29.672Z,99.90
2018-07-15T02:41:33.312Z,99.90
2018-07-15T02:47:40.261Z,99.90
2018-07-15T02:50:43.863Z,99.90
2018-07-15T02:53:47.496Z,99.90
2018-07-15T02:59:54.462Z,99.90
2018-07-15T03:02:58.924Z,99.90
2018-07-15T03:06:02.635Z,99.90
2018-07-15T03:09:08.116Z,99.90
2018-07-15T03:12:11.740Z,99.90
2018-07-15T03:15:15.469Z,99.90
2018-07-15T03:18:19.097Z,99.90
2018-07-15T03:21:22.719Z,99.90
2018-07-15T03:24:26.342Z,99.90
2018-07-15T03:27:29.955Z,99.90
2018-07-15T03:30:33.812Z,99.90
2018-07-15T03:33:37.414Z,99.90
2018-07-15T03:36:41.046Z,99.90
2018-07-15T03:39:44.689Z,99.90
2018-07-15T03:42:48.327Z,99.90
2018-07-15T03:45:51.929Z,99.90
2018-07-15T03:48:55.554Z,99.90
2018-07-15T03:51:59.162Z,99.90
2018-07-15T03:55:02.839Z,99.90
2018-07-15T03:58:06.464Z,99.90
2018-07-15T04:01:10.090Z,99.90
2018-07-15T04:04:13.692Z,99.90
2018-07-15T04:07:17.331Z,99.90
2018-07-15T04:10:20.928Z,99.90
2018-07-15T04:13:24.566Z,99.90
2018-07-15T04:16:28.171Z,99.90
2018-07-15T04:19:31.795Z,99.90
2018-07-15T04:22:35.435Z,99.90
2018-07-15T04:28:42.429Z,99.90
2018-07-15T04:31:46.037Z,99.90
2018-07-15T04:37:53.024Z,99.90
2018-07-15T04:40:56.646Z,99.90
2018-07-15T04:44:00.255Z,99.90
2018-07-15T04:47:03.899Z,99.90
2018-07-15T04:50:07.498Z,99.90
2018-07-15T04:53:11.145Z,99.90
2018-07-15T04:56:14.753Z,99.90
2018-07-15T04:59:18.383Z,99.90
2018-07-15T05:02:21.983Z,99.90
2018-07-15T05:05:25.640Z,99.90
2018-07-15T05:08:30.090Z,99.90
2018-07-15T05:11:33.815Z,99.70
2018-07-15T05:14:37.451Z,99.90
2018-07-15T05:17:41.070Z,99.90
2018-07-15T05:20:44.679Z,99.90
2018-07-15T05:26:51.645Z,99.90
2018-07-15T05:29:55.253Z,99.90
2018-07-15T05:32:58.874Z,99.40
2018-07-15T05:39:05.868Z,97.80
2018-07-15T05:42:09.481Z,98.40
2018-07-15T05:48:16.450Z,98.50
2018-07-15T05:51:20.117Z,97.90
2018-07-15T05:54:23.738Z,97.70
2018-07-15T05:57:27.365Z,97.20
2018-07-15T06:00:31.647Z,95.80
2018-07-15T06:03:35.336Z,97.40
2018-07-15T06:06:38.915Z,98.50
2018-07-15T06:12:45.868Z,98.20
2018-07-15T06:15:49.521Z,97.30
2018-07-15T06:18:53.661Z,97.00
2018-07-15T06:21:57.295Z,96.30
2018-07-15T06:25:00.895Z,96.30
2018-07-15T06:28:04.548Z,95.40
2018-07-15T06:31:08.172Z,95.70
2018-07-15T06:34:11.845Z,96.30
2018-07-15T06:40:18.824Z,96.00
2018-07-15T06:43:22.436Z,96.60
2018-07-15T06:46:31.515Z,96.00
2018-07-15T06:49:35.114Z,96.30
2018-07-15T06:52:38.978Z,95.70
2018-07-15T06:55:42.597Z,96.30
2018-07-15T06:58:46.230Z,97.00
2018-07-15T07:01:50.037Z,96.50
2018-07-15T07:04:53.655Z,96.50
2018-07-15T07:07:57.268Z,95.90
2018-07-15T07:11:00.901Z,95.00
2018-07-15T07:14:04.831Z,95.10
2018-07-15T07:17:08.458Z,95.10
2018-07-15T07:20:12.103Z,94.90
2018-07-15T07:23:15.711Z,94.20
2018-07-15T07:29:22.703Z,93.30
2018-07-15T07:35:29.754Z,92.30
2018-07-15T07:38:33.291Z,92.20
2018-07-15T07:41:36.952Z,93.10
2018-07-15T07:44:40.589Z,93.20
2018-07-15T07:47:44.221Z,94.30
2018-07-15T07:50:47.830Z,94.20
2018-07-15T07:53:51.469Z,93.90
2018-07-15T07:56:55.078Z,93.30
2018-07-15T07:59:58.722Z,93.70
2018-07-15T08:09:09.093Z,91.90
2018-07-15T08:12:12.728Z,91.30
2018-07-15T08:15:16.421Z,91.00
2018-07-15T08:18:20.044Z,90.30
2018-07-15T08:21:23.667Z,88.70
2018-07-15T08:24:27.297Z,87.90
2018-07-15T08:27:30.910Z,89.20
2018-07-15T08:31:17.816Z,90.80
2018-07-15T08:34:21.550Z,92.00
2018-07-15T08:37:25.137Z,91.90
2018-07-15T08:40:28.777Z,91.40
2018-07-15T08:43:32.389Z,91.70
2018-07-15T08:46:36.018Z,91.80
2018-07-15T08:49:39.639Z,91.40
2018-07-15T08:52:43.276Z,90.90
2018-07-15T08:55:46.882Z,90.60
2018-07-15T08:58:50.802Z,90.20
2018-07-15T09:01:54.475Z,89.70
2018-07-15T09:04:58.118Z,89.50
2018-07-15T09:08:01.755Z,88.10
2018-07-15T09:11:05.381Z,88.80
2018-07-15T09:14:08.993Z,91.00
2018-07-15T09:17:12.743Z,91.90
2018-07-15T09:20:16.352Z,92.30
2018-07-15T09:23:20.002Z,91.60
2018-07-15T09:26:23.638Z,91.70
2018-07-15T09:29:27.276Z,91.20
2018-07-15T09:32:30.896Z,90.90
2018-07-15T09:38:37.929Z,90.20
2018-07-15T09:41:41.570Z,89.50
2018-07-15T09:44:45.202Z,90.40
2018-07-15T09:50:52.186Z,91.60
2018-07-15T09:53:55.827Z,91.10
2018-07-15T09:56:59.451Z,91.90
2018-07-15T10:00:03.098Z,91.30
2018-07-15T10:03:06.700Z,91.30
2018-07-15T10:06:10.417Z,92.10
2018-07-15T10:09:14.031Z,91.70
2018-07-15T10:12:17.671Z,92.20
2018-07-15T10:15:21.314Z,91.20
2018-07-15T10:21:28.277Z,90.90
2018-07-15T10:24:31.922Z,90.80
2018-07-15T10:32:08.267Z,91.60
2018-07-15T10:35:11.878Z,92.60
2018-07-15T10:38:15.497Z,92.20
2018-07-15T10:41:19.120Z,92.30
2018-07-15T10:47:26.092Z,91.30
2018-07-15T10:50:29.718Z,90.20
2018-07-15T10:53:33.349Z,90.70
2018-07-15T10:56:36.991Z,91.10
2018-07-15T10:59:40.606Z,90.50
2018-07-15T11:02:44.330Z,91.30
2018-07-15T11:08:51.446Z,90.80
2018-07-15T11:18:02.151Z,90.80
2018-07-15T11:21:05.852Z,91.20
2018-07-15T11:28:24.924Z,92.00
2018-07-15T11:31:28.648Z,91.50
2018-07-15T11:34:33.054Z,91.70
2018-07-15T11:40:40.103Z,91.80
2018-07-15T11:43:43.751Z,91.50
2018-07-15T11:46:47.558Z,91.00
2018-07-15T11:49:51.264Z,90.50
2018-07-15T11:52:54.887Z,90.20
2018-07-15T11:55:58.506Z,89.80
2018-07-15T11:59:02.130Z,90.70
2018-07-15T12:02:05.811Z,91.20
2018-07-15T12:05:09.502Z,91.80
2018-07-15T12:08:13.200Z,92.70
2018-07-15T12:11:16.759Z,91.90
2018-07-15T12:14:20.613Z,91.80
2018-07-15T12:17:24.263Z,91.60
2018-07-15T12:20:27.935Z,91.70
2018-07-15T12:23:31.686Z,92.60
2018-07-15T12:26:35.405Z,92.70
2018-07-15T12:29:39.024Z,92.80
2018-07-15T12:32:42.703Z,91.50
2018-07-15T12:38:49.685Z,91.50
2018-07-15T12:41:53.322Z,91.70
2018-07-15T12:44:56.974Z,90.70
2018-07-15T12:48:00.582Z,91.30
2018-07-15T12:51:04.318Z,91.80
2018-07-15T12:54:07.922Z,92.00
2018-07-15T13:00:15.794Z,92.00
2018-07-15T13:03:19.448Z,92.30
2018-07-15T13:09:26.426Z,91.60
2018-07-15T13:12:30.453Z,91.70
2018-07-15T13:15:34.094Z,92.00
2018-07-15T13:18:37.726Z,92.10
2018-07-15T13:21:41.346Z,92.00
2018-07-15T13:24:45.063Z,91.60
2018-07-15T13:27:48.775Z,91.50
2018-07-15T13:30:52.472Z,92.10
2018-07-15T13:33:56.048Z,92.00
2018-07-15T13:36:59.690Z,92.30
2018-07-15T13:40:03.333Z,92.70
2018-07-15T13:43:06.983Z,92.40
2018-07-15T13:49:13.996Z,92.80
2018-07-15T13:52:17.682Z,93.00
2018-07-15T13:55:21.368Z,92.20
2018-07-15T13:58:24.965Z,92.40
2018-07-15T14:01:28.809Z,92.00
2018-07-15T14:04:32.423Z,92.60
2018-07-15T14:07:36.053Z,91.90
2018-07-15T14:10:39.728Z,91.60
2018-07-15T14:16:46.682Z,91.00
2018-07-15T14:19:50.330Z,91.60
2018-07-15T14:22:53.960Z,91.30
2018-07-15T14:25:57.648Z,91.60
2018-07-15T14:29:01.263Z,91.30
2018-07-15T14:32:04.914Z,91.60
2018-07-15T14:38:12.322Z,91.50
2018-07-15T14:41:15.908Z,90.90
2018-07-15T14:44:19.522Z,91.10
2018-07-15T14:53:30.140Z,91.20
2018-07-15T14:56:33.854Z,91.00
2018-07-15T14:59:37.533Z,91.50
2018-07-15T15:02:41.146Z,91.50
2018-07-15T15:05:44.840Z,91.40
2018-07-15T15:08:48.544Z,91.40
2018-07-15T15:11:52.225Z,91.20
2018-07-15T15:14:55.847Z,91.30
2018-07-15T15:24:06.567Z,91.20
2018-07-15T15:27:10.170Z,91.20
2018-07-15T15:30:13.994Z,91.20
2018-07-15T15:33:17.613Z,91.00
2018-07-15T15:36:21.249Z,91.00
2018-07-15T15:39:24.859Z,91.00
2018-07-15T15:42:28.675Z,91.10
2018-07-15T15:45:32.177Z,91.70
2018-07-15T15:48:35.839Z,91.00
2018-07-15T15:51:39.429Z,91.20
2018-07-15T15:54:43.082Z,91.20
2018-07-15T16:00:50.038Z,91.30
2018-07-15T16:03:53.670Z,91.30
2018-07-15T16:06:57.431Z,90.90
2018-07-15T16:10:01.015Z,91.10
2018-07-15T16:13:04.769Z,91.10
2018-07-15T16:16:08.994Z,91.30
2018-07-15T16:19:12.590Z,91.30
2018-07-15T16:22:16.217Z,91.30
2018-07-15T16:28:23.186Z,91.60
2018-07-15T16:31:26.797Z,91.70
2018-07-15T16:37:57.373Z,91.30
2018-07-15T16:41:00.991Z,92.20
2018-07-15T16:44:04.938Z,91.60
2018-07-15T16:47:08.548Z,91.10
2018-07-15T16:50:12.204Z,91.40
2018-07-15T16:53:15.822Z,91.20
2018-07-15T16:56:19.557Z,91.30
2018-07-15T16:59:23.065Z,91.50
2018-07-15T17:02:26.788Z,91.20
2018-07-15T17:05:30.388Z,91.20
2018-07-15T17:08:34.014Z,91.30
2018-07-15T17:11:37.631Z,91.30
2018-07-15T17:14:41.542Z,91.50
2018-07-15T17:17:45.980Z,90.60
2018-07-15T17:20:49.598Z,90.80
2018-07-15T17:23:53.227Z,90.50
2018-07-15T17:30:00.223Z,91.10
2018-07-15T17:33:03.947Z,91.00
2018-07-15T17:36:07.571Z,91.10
2018-07-15T17:39:11.214Z,91.70
2018-07-15T17:42:14.835Z,91.50
2018-07-15T17:48:21.941Z,91.30
2018-07-15T17:51:25.676Z,91.50
2018-07-15T17:54:29.283Z,91.50
2018-07-15T17:57:32.934Z,91.40
2018-07-15T18:00:36.654Z,91.50
2018-07-15T18:03:40.334Z,91.50
2018-07-15T18:06:43.961Z,91.90
2018-07-15T18:15:54.498Z,91.60
2018-07-15T18:18:58.117Z,91.80
2018-07-15T18:22:01.789Z,91.80
2018-07-15T18:25:05.366Z,92.20
2018-07-15T18:34:15.787Z,92.60
2018-07-15T18:37:19.448Z,92.10
2018-07-15T18:40:23.055Z,92.10
2018-07-15T18:43:26.736Z,92.40
2018-07-15T18:49:33.915Z,92.20
2018-07-15T18:52:37.575Z,92.40
2018-07-15T18:55:41.189Z,92.50
2018-07-15T18:58:44.827Z,92.60
2018-07-15T19:01:48.622Z,92.60
2018-07-15T19:04:52.242Z,93.20
2018-07-15T19:07:55.950Z,93.10
2018-07-15T19:10:59.598Z,93.00
2018-07-15T19:14:03.552Z,93.10
2018-07-15T19:17:08.326Z,93.30
2018-07-15T19:20:11.973Z,93.40
2018-07-15T19:23:15.740Z,93.80
2018-07-15T19:26:19.363Z,94.80
2018-07-15T19:29:22.994Z,94.90
2018-07-15T19:32:26.643Z,94.40
2018-07-15T19:35:30.353Z,94.90
2018-07-15T19:38:33.982Z,95.80
2018-07-15T19:41:37.607Z,95.00
2018-07-15T19:44:41.262Z,95.30
2018-07-15T19:47:44.902Z,96.40
2018-07-15T19:50:49.047Z,96.70
2018-07-15T19:53:52.750Z,97.50
2018-07-15T19:56:56.507Z,97.90
2018-07-15T20:00:00.191Z,98.60
2018-07-15T20:03:03.833Z,98.10
2018-07-15T20:06:07.488Z,98.40
2018-07-15T20:12:14.583Z,99.20
2018-07-15T20:21:25.054Z,99.70
2018-07-15T20:24:28.679Z,99.90
2018-07-15T20:27:32.502Z,99.90
2018-07-15T20:30:36.124Z,99.90
2018-07-15T20:33:39.761Z,99.90
2018-07-15T20:36:43.371Z,99.90
2018-07-15T20:39:47.838Z,99.90
2018-07-15T20:42:51.454Z,99.90
2018-07-15T20:45:55.082Z,99.90
2018-07-15T20:48:58.721Z,99.90
2018-07-15T20:55:05.742Z,99.90
2018-07-15T20:59:12.839Z,99.90
2018-07-15T21:02:16.523Z,99.90
2018-07-15T21:05:20.133Z,99.90
2018-07-15T21:08:23.829Z,99.90
2018-07-15T21:11:27.469Z,99.90
2018-07-15T21:14:31.094Z,99.90
2018-07-15T21:17:34.809Z,99.90
2018-07-15T21:20:38.550Z,99.90
2018-07-15T21:23:42.176Z,99.90
2018-07-15T21:26:45.795Z,99.90
2018-07-15T21:29:49.425Z,99.90
2018-07-15T21:32:53.041Z,99.90
2018-07-15T21:39:00.012Z,99.90
2018-07-15T21:42:03.704Z,99.90
2018-07-15T21:45:07.417Z,99.90
2018-07-15T21:48:11.274Z,99.90
2018-07-15T21:51:14.868Z,99.90
2018-07-15T21:57:21.877Z,99.90
2018-07-15T22:00:26.056Z,99.90
2018-07-15T22:03:29.658Z,99.90
2018-07-15T22:06:45.537Z,99.90
2018-07-15T22:10:00.794Z,99.90
2018-07-15T22:13:04.427Z,99.90
2018-07-15T22:16:08.060Z,99.90
2018-07-15T22:19:11.702Z,99.90
2018-07-15T22:22:15.830Z,99.90
2018-07-15T22:25:19.447Z,99.90
2018-07-15T22:28:23.083Z,99.90
2018-07-15T22:31:26.930Z,99.90
2018-07-15T22:34:30.991Z,99.90
2018-07-15T22:37:34.583Z,99.90
2018-07-15T22:46:44.983Z,99.90
2018-07-15T22:52:52.055Z,99.90
2018-07-15T22:55:55.727Z,99.90
2018-07-15T22:58:59.374Z,99.90
2018-07-15T23:02:02.997Z,99.90
2018-07-15T23:11:53.191Z,99.90
2018-07-15T23:14:56.811Z,99.90
2018-07-15T23:18:00.703Z,99.90
2018-07-15T23:21:04.635Z,99.90
2018-07-15T23:30:15.167Z,99.90
2018-07-15T23:33:18.775Z,99.90
2018-07-15T23:36:22.403Z,99.90
2018-07-15T23:39:26.023Z,99.90
2018-07-15T23:42:29.664Z,99.90
2018-07-15T23:45:34.118Z,99.90
2018-07-15T23:48:37.758Z,99.90
2018-07-15T23:51:41.363Z,99.90
2018-07-15T23:54:44.989Z,99.90
2018-07-15T23:57:48.831Z,99.90
